createdAt,value
2019-03-03T00:00:35.629Z,5.83
2019-03-03T00:03:02.739Z,5.23
2019-03-03T00:05:29.821Z,5.80
2019-03-03T00:07:56.903Z,5.33
2019-03-03T00:10:23.999Z,6.20
2019-03-03T00:12:51.069Z,5.57
2019-03-03T00:15:18.160Z,5.37
2019-03-03T00:17:45.236Z,5.30
2019-03-03T00:20:12.357Z,6.07
2019-03-03T00:22:39.463Z,5.63
2019-03-03T00:25:06.641Z,5.97
2019-03-03T00:27:33.714Z,5.83
2019-03-03T00:30:00.777Z,5.80
2019-03-03T00:32:27.869Z,5.63
2019-03-03T00:34:54.948Z,5.53
2019-03-03T00:37:31.552Z,5.23
2019-03-03T00:40:08.104Z,5.73
2019-03-03T00:42:41.671Z,5.60
2019-03-03T00:45:15.782Z,5.47
2019-03-03T00:47:48.476Z,5.07
2019-03-03T00:50:23.129Z,5.93
2019-03-03T00:52:59.937Z,6.20
2019-03-03T00:55:33.582Z,6.23
2019-03-03T00:58:10.304Z,5.67
2019-03-03T01:00:42.845Z,6.53
2019-03-03T01:03:14.579Z,5.43
2019-03-03T01:05:48.268Z,5.60
2019-03-03T01:08:21.192Z,5.67
2019-03-03T01:10:55.845Z,6.00
2019-03-03T01:13:27.578Z,6.33
2019-03-03T01:18:02.407Z,6.77
2019-03-03T01:20:37.044Z,5.83
2019-03-03T01:23:16.564Z,5.60
2019-03-03T01:25:43.654Z,6.10
2019-03-03T01:28:10.749Z,5.97
2019-03-03T01:30:37.846Z,5.83
2019-03-03T01:33:04.937Z,6.40
2019-03-03T01:35:32.018Z,6.43
2019-03-03T01:37:59.108Z,5.90
2019-03-03T01:40:26.215Z,6.17
2019-03-03T01:42:53.293Z,6.70
2019-03-03T01:45:20.349Z,6.30
2019-03-03T01:47:47.449Z,6.17
2019-03-03T01:50:14.534Z,5.73
2019-03-03T01:52:41.629Z,5.80
2019-03-03T01:55:08.773Z,5.83
2019-03-03T01:57:35.900Z,6.33
2019-03-03T02:00:03.677Z,6.07
2019-03-03T02:02:30.787Z,5.97
2019-03-03T02:04:57.922Z,6.20
2019-03-03T02:07:25.092Z,6.20
2019-03-03T02:09:52.160Z,6.23
2019-03-03T02:12:19.272Z,5.70
2019-03-03T02:14:46.364Z,6.53
2019-03-03T02:17:13.457Z,6.13
2019-03-03T02:19:40.553Z,6.17
2019-03-03T02:22:07.663Z,6.00
2019-03-03T02:24:34.785Z,6.23
2019-03-03T02:27:01.874Z,5.80
2019-03-03T02:29:28.981Z,6.20
2019-03-03T02:31:56.073Z,6.13
2019-03-03T02:34:23.174Z,6.33
2019-03-03T02:36:50.366Z,6.13
2019-03-03T02:39:17.729Z,5.53
2019-03-03T02:41:44.840Z,6.53
2019-03-03T02:44:12.006Z,5.90
2019-03-03T02:46:39.091Z,7.77
2019-03-03T02:49:06.191Z,5.87
2019-03-03T02:51:33.249Z,6.50
2019-03-03T02:54:00.346Z,6.13
2019-03-03T02:56:27.425Z,6.47
2019-03-03T02:58:54.539Z,6.47
2019-03-03T03:01:25.232Z,5.77
2019-03-03T03:03:52.342Z,6.20
2019-03-03T03:06:42.997Z,6.40
2019-03-03T03:09:12.715Z,6.47
2019-03-03T03:11:48.383Z,6.00
2019-03-03T03:14:20.101Z,6.23
2019-03-03T03:16:51.858Z,6.37
2019-03-03T03:19:23.602Z,5.90
2019-03-03T03:21:56.105Z,6.33
2019-03-03T03:24:28.885Z,5.87
2019-03-03T03:27:07.320Z,6.23
2019-03-03T03:29:38.465Z,6.63
2019-03-03T03:32:11.140Z,5.73
2019-03-03T03:34:42.942Z,6.43
2019-03-03T03:37:14.679Z,7.00
2019-03-03T03:39:46.426Z,6.30
2019-03-03T03:42:18.159Z,6.03
2019-03-03T03:44:51.721Z,6.70
2019-03-03T03:47:32.233Z,6.10
2019-03-03T03:50:09.886Z,6.23
2019-03-03T03:52:48.598Z,6.60
2019-03-03T03:55:24.161Z,5.80
2019-03-03T03:57:55.928Z,6.50
2019-03-03T04:00:30.416Z,6.83
2019-03-03T04:03:08.047Z,6.43
2019-03-03T04:05:45.677Z,6.30
2019-03-03T04:08:19.234Z,5.70
2019-03-03T04:10:52.752Z,5.80
2019-03-03T04:13:26.385Z,5.77
2019-03-03T04:15:58.121Z,6.20
2019-03-03T04:18:30.685Z,5.60
2019-03-03T04:21:02.404Z,5.90
2019-03-03T04:24:07.086Z,5.97
2019-03-03T04:26:39.956Z,5.73
2019-03-03T04:29:12.888Z,5.87
2019-03-03T04:32:47.629Z,5.93
2019-03-03T04:35:21.401Z,6.27
2019-03-03T04:37:55.018Z,6.23
2019-03-03T04:40:29.550Z,6.40
2019-03-03T04:43:07.204Z,6.10
2019-03-03T04:45:39.973Z,6.20
2019-03-03T04:48:12.878Z,5.20
2019-03-03T04:50:45.544Z,5.17
2019-03-03T04:53:18.405Z,5.90
2019-03-03T04:55:58.093Z,6.33
2019-03-03T04:58:30.801Z,5.33
2019-03-03T05:01:06.482Z,6.00
2019-03-03T05:03:42.092Z,5.40
2019-03-03T05:06:15.739Z,4.97
2019-03-03T05:08:48.344Z,5.87
2019-03-03T05:12:35.300Z,5.17
2019-03-03T05:15:07.336Z,5.10
2019-03-03T05:17:39.066Z,5.20
2019-03-03T05:20:06.221Z,5.33
2019-03-03T05:22:33.329Z,5.60
2019-03-03T05:25:00.444Z,4.90
2019-03-03T05:27:27.552Z,4.70
2019-03-03T05:29:54.617Z,5.60
2019-03-03T05:32:21.734Z,5.50
2019-03-03T05:34:48.823Z,5.03
2019-03-03T05:37:15.888Z,4.97
2019-03-03T05:39:42.985Z,4.63
2019-03-03T05:42:10.080Z,5.40
2019-03-03T05:44:37.184Z,4.93
2019-03-03T05:47:04.276Z,4.87
2019-03-03T05:49:31.355Z,5.40
2019-03-03T05:51:58.420Z,5.00
2019-03-03T05:54:25.499Z,5.17
2019-03-03T05:56:52.580Z,4.90
2019-03-03T05:59:19.693Z,4.63
2019-03-03T06:01:46.789Z,5.33
2019-03-03T06:04:13.889Z,4.60
2019-03-03T06:06:40.952Z,4.57
2019-03-03T06:09:08.037Z,4.33
2019-03-03T06:11:35.105Z,4.63
2019-03-03T06:14:02.180Z,4.17
2019-03-03T06:16:29.273Z,5.03
2019-03-03T06:18:56.357Z,4.00
2019-03-03T06:21:23.429Z,4.20
2019-03-03T06:23:50.482Z,4.03
2019-03-03T06:26:17.551Z,4.17
2019-03-03T06:28:44.605Z,4.00
2019-03-03T06:31:11.712Z,4.27
2019-03-03T06:33:38.801Z,4.17
2019-03-03T06:36:05.881Z,4.30
2019-03-03T06:38:32.977Z,4.10
2019-03-03T06:41:00.068Z,3.73
2019-03-03T06:43:27.160Z,3.93
2019-03-03T06:45:54.247Z,4.03
2019-03-03T06:48:21.309Z,3.63
2019-03-03T06:50:48.392Z,3.97
2019-03-03T06:53:15.480Z,3.70
2019-03-03T06:55:42.552Z,3.20
2019-03-03T06:58:09.665Z,3.37
2019-03-03T07:00:36.749Z,3.60
2019-03-03T07:03:03.854Z,3.20
2019-03-03T07:05:30.955Z,3.27
2019-03-03T07:07:58.039Z,3.30
2019-03-03T07:10:25.133Z,3.30
2019-03-03T07:12:52.237Z,3.23
2019-03-03T07:15:19.323Z,2.70
2019-03-03T07:17:46.442Z,3.43
2019-03-03T07:20:13.541Z,2.70
2019-03-03T07:22:40.739Z,2.70
2019-03-03T07:25:09.302Z,2.90
2019-03-03T07:27:36.373Z,3.00
2019-03-03T07:30:03.754Z,3.10
2019-03-03T07:32:30.846Z,2.90
2019-03-03T07:34:57.950Z,2.33
2019-03-03T07:37:25.063Z,2.47
2019-03-03T07:39:53.461Z,2.60
2019-03-03T07:42:19.284Z,2.20
2019-03-03T07:44:46.375Z,2.70
2019-03-03T07:47:13.482Z,2.37
2019-03-03T07:49:40.592Z,2.50
2019-03-03T07:52:07.684Z,2.33
2019-03-03T07:54:34.774Z,2.03
2019-03-03T07:57:01.861Z,2.47
2019-03-03T07:59:28.967Z,1.97
2019-03-03T08:01:56.085Z,2.27
2019-03-03T08:04:23.148Z,2.27
2019-03-03T08:06:50.234Z,2.43
2019-03-03T08:09:17.328Z,2.40
2019-03-03T08:11:44.438Z,1.87
2019-03-03T08:14:11.740Z,2.30
2019-03-03T08:16:38.874Z,2.00
2019-03-03T08:19:05.973Z,1.90
2019-03-03T08:21:33.073Z,1.73
2019-03-03T08:24:00.201Z,2.57
2019-03-03T08:26:27.292Z,2.20
2019-03-03T08:28:54.398Z,2.47
2019-03-03T08:31:21.521Z,1.60
2019-03-03T08:33:49.138Z,1.83
2019-03-03T08:36:16.822Z,1.90
2019-03-03T08:38:44.881Z,1.77
2019-03-03T08:41:12.308Z,1.70
2019-03-03T08:43:43.431Z,1.90
2019-03-03T08:46:20.040Z,1.73
2019-03-03T08:48:52.961Z,1.80
2019-03-03T08:51:27.585Z,2.00
2019-03-03T08:53:59.344Z,1.90
2019-03-03T08:56:38.065Z,1.93
2019-03-03T08:59:17.770Z,1.50
2019-03-03T09:01:49.517Z,1.80
2019-03-03T09:04:23.266Z,1.70
2019-03-03T09:06:54.997Z,1.67
2019-03-03T09:09:29.663Z,1.80
2019-03-03T09:12:01.533Z,1.47
2019-03-03T09:14:33.321Z,1.67
2019-03-03T09:17:07.004Z,1.60
2019-03-03T09:19:40.659Z,1.67
2019-03-03T09:22:12.460Z,1.60
2019-03-03T09:24:47.982Z,1.70
2019-03-03T09:27:20.932Z,1.67
2019-03-03T09:29:53.643Z,1.80
2019-03-03T09:34:27.546Z,1.47
2019-03-03T09:36:59.274Z,1.50
2019-03-03T09:39:30.997Z,1.27
2019-03-03T09:42:10.689Z,1.53
2019-03-03T09:44:43.349Z,1.53
2019-03-03T09:47:24.987Z,1.50
2019-03-03T09:49:59.496Z,1.43
2019-03-03T09:52:39.997Z,1.13
2019-03-03T09:55:14.694Z,1.27
2019-03-03T09:57:46.430Z,1.20
2019-03-03T10:00:20.969Z,1.50
2019-03-03T10:02:53.884Z,1.30
2019-03-03T10:05:26.784Z,1.30
2019-03-03T10:08:02.504Z,1.50
2019-03-03T10:10:36.036Z,1.40
2019-03-03T10:13:14.593Z,1.30
2019-03-03T10:15:49.222Z,1.20
2019-03-03T10:18:51.857Z,1.20
2019-03-03T10:21:26.485Z,1.63
2019-03-03T10:23:58.959Z,1.40
2019-03-03T10:26:37.596Z,1.40
2019-03-03T10:29:09.511Z,1.33
2019-03-03T10:31:42.141Z,1.40
2019-03-03T10:34:16.738Z,1.20
2019-03-03T10:36:50.452Z,1.27
2019-03-03T10:39:24.252Z,1.30
2019-03-03T10:41:56.917Z,1.10
2019-03-03T10:44:29.817Z,1.10
2019-03-03T10:47:04.500Z,1.37
2019-03-03T10:49:39.156Z,1.30
2019-03-03T10:52:11.684Z,1.30
2019-03-03T10:54:44.432Z,1.13
2019-03-03T10:57:16.185Z,1.40
2019-03-03T10:59:55.167Z,0.90
2019-03-03T11:02:29.437Z,1.27
2019-03-03T11:05:35.149Z,1.03
2019-03-03T11:08:12.722Z,1.20
2019-03-03T11:10:57.176Z,1.10
2019-03-03T11:13:26.024Z,1.10
2019-03-03T11:16:01.568Z,1.37
2019-03-03T11:18:36.269Z,1.23
2019-03-03T11:21:08.875Z,1.20
2019-03-03T11:23:40.622Z,1.37
2019-03-03T11:26:15.133Z,1.20
2019-03-03T11:30:50.855Z,1.00
2019-03-03T11:33:23.810Z,1.30
2019-03-03T11:35:56.329Z,1.07
2019-03-03T11:38:28.858Z,1.40
2019-03-03T11:41:02.558Z,1.37
2019-03-03T11:43:35.285Z,1.30
2019-03-03T11:46:08.181Z,1.57
2019-03-03T11:48:58.968Z,1.20
2019-03-03T11:51:31.654Z,0.93
2019-03-03T11:54:33.949Z,0.93
2019-03-03T11:57:08.617Z,1.33
2019-03-03T11:59:40.353Z,1.40
2019-03-03T12:02:14.034Z,1.30
2019-03-03T12:05:04.702Z,1.03
2019-03-03T12:07:41.321Z,1.20
2019-03-03T12:10:13.076Z,1.00
2019-03-03T12:12:45.966Z,1.00
2019-03-03T12:15:18.641Z,1.17
2019-03-03T12:17:53.180Z,1.00
2019-03-03T12:20:25.981Z,1.27
2019-03-03T12:22:59.813Z,1.20
2019-03-03T12:25:31.580Z,1.40
2019-03-03T12:28:04.555Z,1.17
2019-03-03T12:30:37.297Z,0.90
2019-03-03T12:33:25.044Z,1.10
2019-03-03T12:36:00.799Z,1.20
2019-03-03T12:38:32.516Z,1.00
2019-03-03T12:41:04.242Z,1.40
2019-03-03T12:43:35.981Z,1.20
2019-03-03T12:46:12.694Z,1.00
2019-03-03T12:48:45.391Z,1.27
2019-03-03T12:51:18.034Z,1.40
2019-03-03T12:53:50.616Z,1.27
2019-03-03T12:56:28.286Z,1.20
2019-03-03T12:59:01.169Z,1.20
2019-03-03T13:01:33.856Z,1.17
2019-03-03T13:04:06.422Z,1.20
2019-03-03T13:06:41.944Z,1.23
2019-03-03T13:09:13.685Z,1.07
2019-03-03T13:13:48.723Z,0.97
2019-03-03T13:16:24.500Z,0.87
2019-03-03T13:18:56.236Z,1.40
2019-03-03T13:21:28.912Z,1.20
2019-03-03T13:24:01.394Z,1.10
2019-03-03T13:26:35.077Z,1.00
2019-03-03T13:29:07.809Z,1.17
2019-03-03T13:31:39.540Z,1.10
2019-03-03T13:34:16.040Z,1.50
2019-03-03T13:36:57.533Z,1.20
2019-03-03T13:39:31.207Z,1.33
2019-03-03T13:42:05.705Z,1.40
2019-03-03T13:44:32.834Z,1.07
2019-03-03T13:46:59.924Z,1.37
2019-03-03T13:49:27.006Z,1.10
2019-03-03T13:51:54.119Z,0.97
2019-03-03T13:54:21.229Z,1.10
2019-03-03T13:56:48.372Z,1.20
2019-03-03T13:59:15.469Z,1.30
2019-03-03T14:01:43.490Z,1.20
2019-03-03T14:04:09.737Z,1.03
2019-03-03T14:06:36.830Z,1.20
2019-03-03T14:09:05.138Z,1.20
2019-03-03T14:11:32.289Z,1.20
2019-03-03T14:13:59.409Z,1.17
2019-03-03T14:16:26.551Z,1.40
2019-03-03T14:18:53.663Z,1.00
2019-03-03T14:21:20.741Z,0.87
2019-03-03T14:23:49.473Z,1.00
2019-03-03T14:26:15.057Z,1.30
2019-03-03T14:28:42.162Z,1.40
2019-03-03T14:31:09.273Z,1.07
2019-03-03T14:33:36.408Z,1.00
2019-03-03T14:36:03.953Z,1.00
2019-03-03T14:38:31.059Z,1.17
2019-03-03T14:40:58.160Z,1.37
2019-03-03T14:43:25.250Z,1.30
2019-03-03T14:45:52.373Z,1.20
2019-03-03T14:48:19.486Z,1.37
2019-03-03T14:50:46.581Z,1.20
2019-03-03T14:53:13.753Z,1.10
2019-03-03T14:55:40.876Z,1.00
2019-03-03T14:58:07.977Z,1.30
2019-03-03T15:00:35.118Z,0.90
2019-03-03T15:03:04.266Z,1.00
2019-03-03T15:05:31.395Z,1.10
2019-03-03T15:07:58.510Z,1.20
2019-03-03T15:10:25.601Z,1.13
2019-03-03T15:12:52.742Z,0.90
2019-03-03T15:15:20.543Z,0.90
2019-03-03T15:17:47.670Z,1.00
2019-03-03T15:20:14.801Z,1.20
2019-03-03T15:22:42.013Z,1.00
2019-03-03T15:25:09.128Z,0.90
2019-03-03T15:27:36.278Z,1.20
2019-03-03T15:30:04.163Z,1.20
2019-03-03T15:32:31.281Z,1.27
2019-03-03T15:34:58.380Z,1.07
2019-03-03T15:37:25.477Z,0.93
2019-03-03T15:39:52.615Z,1.00
2019-03-03T15:42:19.725Z,1.13
2019-03-03T15:44:46.849Z,1.10
2019-03-03T15:47:13.973Z,1.03
2019-03-03T15:49:41.077Z,0.97
2019-03-03T15:52:08.161Z,1.30
2019-03-03T15:54:35.270Z,1.40
2019-03-03T15:57:02.385Z,1.13
2019-03-03T15:59:29.518Z,1.47
2019-03-03T16:01:56.621Z,1.20
2019-03-03T16:04:23.710Z,1.30
2019-03-03T16:06:50.837Z,1.20
2019-03-03T16:09:17.952Z,0.93
2019-03-03T16:11:45.096Z,1.00
2019-03-03T16:14:12.196Z,1.27
2019-03-03T16:16:39.321Z,1.20
2019-03-03T16:19:06.425Z,0.97
2019-03-03T16:21:33.517Z,1.10
2019-03-03T16:24:00.621Z,0.97
2019-03-03T16:26:27.697Z,1.30
2019-03-03T16:28:54.813Z,1.10
2019-03-03T16:31:21.911Z,1.10
2019-03-03T16:33:49.033Z,1.43
2019-03-03T16:36:16.118Z,1.20
2019-03-03T16:38:43.196Z,0.90
2019-03-03T16:41:10.261Z,1.10
2019-03-03T16:43:37.364Z,1.30
2019-03-03T16:46:04.441Z,1.30
2019-03-03T16:48:31.565Z,1.20
2019-03-03T16:50:58.646Z,0.83
2019-03-03T16:53:25.774Z,1.17
2019-03-03T16:55:52.881Z,1.37
2019-03-03T16:58:19.974Z,1.07
2019-03-03T17:00:47.107Z,1.30
2019-03-03T17:03:14.208Z,1.43
2019-03-03T17:05:41.284Z,1.03
2019-03-03T17:08:08.432Z,1.10
2019-03-03T17:10:35.525Z,1.60
2019-03-03T17:13:02.667Z,1.00
2019-03-03T17:15:29.748Z,1.07
2019-03-03T17:17:56.844Z,1.40
2019-03-03T17:20:23.930Z,1.00
2019-03-03T17:22:51.037Z,1.37
2019-03-03T17:25:19.750Z,1.30
2019-03-03T17:27:46.843Z,1.00
2019-03-03T17:30:15.644Z,1.07
2019-03-03T17:32:42.754Z,1.30
2019-03-03T17:35:09.870Z,1.10
2019-03-03T17:37:36.960Z,1.20
2019-03-03T17:40:04.488Z,1.40
2019-03-03T17:42:31.593Z,1.50
2019-03-03T17:44:58.684Z,1.33
2019-03-03T17:47:25.777Z,1.37
2019-03-03T17:49:52.866Z,1.23
2019-03-03T17:52:19.958Z,1.47
2019-03-03T17:54:47.024Z,1.13
2019-03-03T17:57:14.130Z,1.17
2019-03-03T17:59:41.200Z,1.20
2019-03-03T18:02:08.293Z,1.53
2019-03-03T18:04:35.385Z,1.77
2019-03-03T18:07:02.535Z,1.73
2019-03-03T18:09:29.616Z,1.33
2019-03-03T18:11:56.731Z,0.97
2019-03-03T18:14:23.818Z,1.20
2019-03-03T18:16:50.903Z,1.10
2019-03-03T18:19:17.995Z,0.90
2019-03-03T18:21:45.095Z,1.10
2019-03-03T18:24:12.194Z,1.20
2019-03-03T18:26:39.261Z,1.20
2019-03-03T18:29:06.328Z,1.40
2019-03-03T18:31:33.417Z,1.17
2019-03-03T18:34:00.510Z,1.23
2019-03-03T18:36:27.616Z,1.27
2019-03-03T18:38:54.687Z,0.90
2019-03-03T18:41:21.752Z,1.20
2019-03-03T18:43:48.854Z,1.30
2019-03-03T18:46:15.954Z,0.97
2019-03-03T18:48:43.098Z,1.33
2019-03-03T18:51:10.180Z,1.00
2019-03-03T18:53:37.257Z,1.23
2019-03-03T18:56:04.327Z,1.57
2019-03-03T18:58:31.436Z,1.20
2019-03-03T19:00:58.490Z,1.40
2019-03-03T19:03:25.582Z,1.37
2019-03-03T19:05:55.580Z,1.43
2019-03-03T19:08:19.765Z,1.20
2019-03-03T19:10:46.858Z,1.20
2019-03-03T19:13:13.958Z,1.20
2019-03-03T19:15:41.077Z,1.33
2019-03-03T19:18:08.178Z,1.40
2019-03-03T19:20:35.263Z,1.27
2019-03-03T19:23:02.386Z,1.27
2019-03-03T19:25:29.480Z,1.30
2019-03-03T19:27:56.582Z,1.40
2019-03-03T19:30:24.005Z,1.27
2019-03-03T19:32:54.489Z,1.33
2019-03-03T19:35:21.623Z,1.23
2019-03-03T19:37:48.715Z,1.30
2019-03-03T19:40:15.789Z,1.23
2019-03-03T19:42:42.872Z,1.60
2019-03-03T19:45:13.229Z,1.50
2019-03-03T19:47:40.349Z,1.10
2019-03-03T19:50:08.932Z,1.10
2019-03-03T19:52:36.027Z,1.50
2019-03-03T19:55:03.182Z,1.60
2019-03-03T19:57:30.277Z,1.23
2019-03-03T19:59:57.365Z,1.13
2019-03-03T20:02:24.556Z,1.30
2019-03-03T20:04:51.654Z,1.17
2019-03-03T20:07:18.734Z,1.20
2019-03-03T20:09:45.850Z,1.30
2019-03-03T20:12:12.954Z,1.40
2019-03-03T20:14:40.063Z,1.33
2019-03-03T20:17:07.141Z,1.57
2019-03-03T20:19:34.238Z,1.20
2019-03-03T20:22:01.302Z,1.20
2019-03-03T20:24:28.381Z,1.10
2019-03-03T20:26:55.448Z,1.33
2019-03-03T20:29:22.564Z,1.40
2019-03-03T20:31:49.690Z,1.20
2019-03-03T20:34:16.766Z,1.43
2019-03-03T20:36:43.849Z,1.07
2019-03-03T20:39:10.959Z,1.33
2019-03-03T20:41:38.086Z,1.27
2019-03-03T20:44:05.197Z,1.47
2019-03-03T20:46:32.296Z,1.40
2019-03-03T20:48:59.348Z,1.63
2019-03-03T20:51:26.440Z,1.20
2019-03-03T20:53:53.509Z,1.50
2019-03-03T20:56:20.589Z,1.27
2019-03-03T20:58:47.693Z,1.20
2019-03-03T21:01:14.802Z,1.17
2019-03-03T21:03:41.914Z,1.10
2019-03-03T21:06:08.978Z,1.30
2019-03-03T21:08:36.108Z,1.20
2019-03-03T21:11:03.202Z,1.40
2019-03-03T21:13:30.277Z,1.50
2019-03-03T21:15:58.056Z,1.40
2019-03-03T21:18:24.489Z,1.40
2019-03-03T21:20:51.567Z,1.30
2019-03-03T21:23:18.645Z,1.10
2019-03-03T21:25:45.737Z,1.50
2019-03-03T21:28:12.796Z,1.30
2019-03-03T21:30:39.869Z,1.43
2019-03-03T21:33:06.941Z,1.50
2019-03-03T21:35:34.024Z,1.13
2019-03-03T21:38:01.113Z,1.33
2019-03-03T21:40:28.208Z,1.10
2019-03-03T21:42:55.292Z,1.43
2019-03-03T21:45:22.412Z,1.13
2019-03-03T21:47:49.528Z,1.20
2019-03-03T21:50:18.314Z,1.30
2019-03-03T21:52:45.393Z,1.30
2019-03-03T21:55:12.538Z,1.13
2019-03-03T21:57:39.640Z,1.40
2019-03-03T22:00:12.522Z,1.37
2019-03-03T22:02:39.628Z,1.50
2019-03-03T22:05:06.726Z,0.90
2019-03-03T22:07:33.799Z,0.93
2019-03-03T22:10:00.898Z,1.07
2019-03-03T22:12:27.978Z,1.40
2019-03-03T22:14:55.063Z,0.97
2019-03-03T22:17:22.148Z,1.20
2019-03-03T22:19:49.226Z,1.13
2019-03-03T22:22:16.311Z,1.00
2019-03-03T22:24:43.393Z,1.20
2019-03-03T22:27:10.612Z,1.00
2019-03-03T22:29:37.697Z,1.30
2019-03-03T22:32:04.781Z,1.17
2019-03-03T22:34:31.860Z,1.20
2019-03-03T22:36:58.957Z,1.27
2019-03-03T22:39:26.064Z,1.40
2019-03-03T22:41:53.161Z,1.20
2019-03-03T22:44:20.233Z,0.93
2019-03-03T22:46:47.323Z,1.10
2019-03-03T22:49:14.424Z,1.07
2019-03-03T22:51:41.499Z,1.23
2019-03-03T22:54:08.593Z,1.10
2019-03-03T22:56:35.689Z,0.90
2019-03-03T22:59:02.767Z,1.27
2019-03-03T23:01:33.586Z,0.93
2019-03-03T23:04:26.041Z,1.07
2019-03-03T23:07:00.380Z,1.17
2019-03-03T23:09:43.616Z,1.30
2019-03-03T23:12:26.619Z,1.10
2019-03-03T23:14:59.448Z,1.00
2019-03-03T23:17:35.958Z,1.17
2019-03-03T23:20:12.253Z,1.10
2019-03-03T23:22:52.098Z,1.33
2019-03-03T23:25:29.629Z,1.03
2019-03-03T23:27:56.713Z,0.93
2019-03-03T23:30:23.778Z,1.10
2019-03-03T23:32:50.858Z,1.40
2019-03-03T23:35:17.959Z,1.20
2019-03-03T23:37:45.029Z,1.10
2019-03-03T23:40:12.112Z,1.50
2019-03-03T23:42:39.221Z,0.90
2019-03-03T23:45:06.537Z,0.97
2019-03-03T23:47:33.629Z,1.00
2019-03-03T23:50:00.720Z,1.00
2019-03-03T23:52:27.805Z,1.17
2019-03-03T23:54:54.882Z,1.20
2019-03-03T23:57:23.435Z,1.00
2019-03-03T23:59:49.081Z,1.13
